sensor_id;sensor_type;location;lat;lon;timestamp;P1;durP1;ratioP1;P2;durP2;ratioP2
55350;SDS011;62194;49.480;10.986;2024-02-26T00:00:02;6.62;;;4.70;;
55350;SDS011;62194;49.480;10.986;2024-02-26T00:00:09;7.00;;;4.84;;
55350;SDS011;62194;49.480;10.986;2024-02-26T00:00:15;6.97;;;4.90;;
55350;SDS011;62194;49.480;10.986;2024-02-26T00:00:20;7.10;;;4.90;;
55350;SDS011;62194;49.480;10.986;2024-02-26T00:00:26;7.13;;;5.00;;
55350;SDS011;62194;49.480;10.986;2024-02-26T00:00:31;7.17;;;4.87;;
55350;SDS011;62194;49.480;10.986;2024-02-26T00:00:37;7.20;;;4.88;;
55350;SDS011;62194;49.480;10.986;2024-02-26T00:00:42;7.23;;;4.80;;
55350;SDS011;62194;49.480;10.986;2024-02-26T00:00:47;6.93;;;4.80;;
55350;SDS011;62194;49.480;10.986;2024-02-26T00:00:53;6.87;;;4.80;;
55350;SDS011;62194;49.480;10.986;2024-02-26T00:00:58;7.07;;;4.93;;
55350;SDS011;62194;49.480;10.986;2024-02-26T00:01:04;7.43;;;5.00;;
55350;SDS011;62194;49.480;10.986;2024-02-26T00:01:10;7.97;;;5.13;;
55350;SDS011;62194;49.480;10.986;2024-02-26T00:01:15;8.33;;;5.23;;
55350;SDS011;62194;49.480;10.986;2024-02-26T00:01:20;8.43;;;5.13;;
55350;SDS011;62194;49.480;10.986;2024-02-26T00:01:26;8.73;;;5.10;;
55350;SDS011;62194;49.480;10.986;2024-02-26T00:01:32;8.50;;;5.15;;
55350;SDS011;62194;49.480;10.986;2024-02-26T00:01:39;7.66;;;5.06;;
55350;SDS011;62194;49.480;10.986;2024-02-26T00:01:44;7.83;;;5.00;;
55350;SDS011;62194;49.480;10.986;2024-02-26T00:01:49;8.00;;;5.00;;
55350;SDS011;62194;49.480;10.986;2024-02-26T00:01:55;8.00;;;5.00;;
55350;SDS011;62194;49.480;10.986;2024-02-26T00:02:00;7.73;;;4.83;;
55350;SDS011;62194;49.480;10.986;2024-02-26T00:02:05;7.72;;;4.70;;
55350;SDS011;62194;49.480;10.986;2024-02-26T00:02:11;7.03;;;4.67;;
55350;SDS011;62194;49.480;10.986;2024-02-26T00:02:17;7.07;;;4.70;;
55350;SDS011;62194;49.480;10.986;2024-02-26T00:02:23;6.43;;;4.63;;
55350;SDS011;62194;49.480;10.986;2024-02-26T00:02:28;6.50;;;4.53;;
55350;SDS011;62194;49.480;10.986;2024-02-26T00:02:33;7.20;;;4.77;;
55350;SDS011;62194;49.480;10.986;2024-02-26T00:02:42;7.90;;;4.80;;
55350;SDS011;62194;49.480;10.986;2024-02-26T00:02:47;7.73;;;4.83;;
55350;SDS011;62194;49.480;10.986;2024-02-26T00:02:53;7.77;;;4.73;;
55350;SDS011;62194;49.480;10.986;2024-02-26T00:02:58;7.50;;;4.75;;
55350;SDS011;62194;49.480;10.986;2024-02-26T00:03:03;7.27;;;4.60;;
55350;SDS011;62194;49.480;10.986;2024-02-26T00:03:09;6.90;;;4.57;;
55350;SDS011;62194;49.480;10.986;2024-02-26T00:03:14;6.80;;;4.40;;
55350;SDS011;62194;49.480;10.986;2024-02-26T00:03:19;6.73;;;4.43;;
55350;SDS011;62194;49.480;10.986;2024-02-26T00:03:25;7.30;;;4.70;;
55350;SDS011;62194;49.480;10.986;2024-02-26T00:03:30;7.82;;;4.80;;
55350;SDS011;62194;49.480;10.986;2024-02-26T00:03:37;7.96;;;4.90;;
55350;SDS011;62194;49.480;10.986;2024-02-26T00:03:43;8.25;;;5.07;;
55350;SDS011;62194;49.480;10.986;2024-02-26T00:03:50;8.42;;;4.94;;
55350;SDS011;62194;49.480;10.986;2024-02-26T00:03:57;7.37;;;4.77;;
55350;SDS011;62194;49.480;10.986;2024-02-26T00:04:04;7.07;;;4.85;;
55350;SDS011;62194;49.480;10.986;2024-02-26T00:04:11;6.57;;;4.67;;
55350;SDS011;62194;49.480;10.986;2024-02-26T00:04:17;6.17;;;4.60;;
55350;SDS011;62194;49.480;10.986;2024-02-26T00:04:22;6.50;;;4.72;;
55350;SDS011;62194;49.480;10.986;2024-02-26T00:04:27;6.87;;;4.87;;
55350;SDS011;62194;49.480;10.986;2024-02-26T00:04:33;6.87;;;4.77;;
55350;SDS011;62194;49.480;10.986;2024-02-26T00:04:38;7.15;;;4.80;;
55350;SDS011;62194;49.480;10.986;2024-02-26T00:04:43;7.23;;;4.83;;
55350;SDS011;62194;49.480;10.986;2024-02-26T00:04:48;7.20;;;4.80;;
55350;SDS011;62194;49.480;10.986;2024-02-26T00:04:55;7.30;;;4.87;;
55350;SDS011;62194;49.480;10.986;2024-02-26T00:05:00;6.93;;;4.80;;
55350;SDS011;62194;49.480;10.986;2024-02-26T00:05:06;7.43;;;4.90;;
55350;SDS011;62194;49.480;10.986;2024-02-26T00:05:11;7.78;;;5.15;;
55350;SDS011;62194;49.480;10.986;2024-02-26T00:05:17;8.77;;;5.40;;
55350;SDS011;62194;49.480;10.986;2024-02-26T00:05:22;8.83;;;5.23;;
55350;SDS011;62194;49.480;10.986;2024-02-26T00:05:27;9.03;;;5.20;;
55350;SDS011;62194;49.480;10.986;2024-02-26T00:05:33;9.43;;;5.30;;
55350;SDS011;62194;49.480;10.986;2024-02-26T00:05:38;8.53;;;5.00;;
55350;SDS011;62194;49.480;10.986;2024-02-26T00:05:44;7.68;;;4.80;;
55350;SDS011;62194;49.480;10.986;2024-02-26T00:05:49;7.30;;;4.90;;
55350;SDS011;62194;49.480;10.986;2024-02-26T00:05:54;7.63;;;4.90;;
55350;SDS011;62194;49.480;10.986;2024-02-26T00:06:01;7.74;;;4.70;;
55350;SDS011;62194;49.480;10.986;2024-02-26T00:06:07;8.83;;;4.87;;
55350;SDS011;62194;49.480;10.986;2024-02-26T00:06:12;9.07;;;5.07;;
55350;SDS011;62194;49.480;10.986;2024-02-26T00:06:18;9.52;;;5.05;;
55350;SDS011;62194;49.480;10.986;2024-02-26T00:06:23;9.43;;;5.30;;
55350;SDS011;62194;49.480;10.986;2024-02-26T00:06:29;9.27;;;5.40;;
55350;SDS011;62194;49.480;10.986;2024-02-26T00:06:35;8.03;;;5.30;;
55350;SDS011;62194;49.480;10.986;2024-02-26T00:06:41;8.25;;;5.25;;
55350;SDS011;62194;49.480;10.986;2024-02-26T00:06:47;8.25;;;5.20;;
55350;SDS011;62194;49.480;10.986;2024-02-26T00:06:55;8.30;;;5.00;;
55350;SDS011;62194;49.480;10.986;2024-02-26T00:07:00;7.60;;;4.93;;
55350;SDS011;62194;49.480;10.986;2024-02-26T00:07:06;7.43;;;4.83;;
55350;SDS011;62194;49.480;10.986;2024-02-26T00:07:11;7.13;;;4.77;;
55350;SDS011;62194;49.480;10.986;2024-02-26T00:07:17;6.65;;;4.70;;
55350;SDS011;62194;49.480;10.986;2024-02-26T00:07:22;6.27;;;4.77;;
55350;SDS011;62194;49.480;10.986;2024-02-26T00:07:27;6.83;;;4.93;;
55350;SDS011;62194;49.480;10.986;2024-02-26T00:07:32;7.38;;;5.13;;
55350;SDS011;62194;49.480;10.986;2024-02-26T00:07:38;7.87;;;5.33;;
55350;SDS011;62194;49.480;10.986;2024-02-26T00:07:44;8.23;;;5.40;;
55350;SDS011;62194;49.480;10.986;2024-02-26T00:07:50;8.43;;;5.47;;
55350;SDS011;62194;49.480;10.986;2024-02-26T00:07:55;7.97;;;5.20;;
55350;SDS011;62194;49.480;10.986;2024-02-26T00:08:01;7.50;;;5.05;;
55350;SDS011;62194;49.480;10.986;2024-02-26T00:08:06;7.10;;;4.90;;
55350;SDS011;62194;49.480;10.986;2024-02-26T00:08:11;7.13;;;4.85;;
55350;SDS011;62194;49.480;10.986;2024-02-26T00:08:17;7.40;;;4.87;;
55350;SDS011;62194;49.480;10.986;2024-02-26T00:08:22;7.37;;;4.90;;
55350;SDS011;62194;49.480;10.986;2024-02-26T00:08:27;7.82;;;4.97;;
55350;SDS011;62194;49.480;10.986;2024-02-26T00:08:33;8.47;;;5.03;;
55350;SDS011;62194;49.480;10.986;2024-02-26T00:08:38;9.07;;;5.13;;
55350;SDS011;62194;49.480;10.986;2024-02-26T00:08:44;8.47;;;5.10;;
55350;SDS011;62194;49.480;10.986;2024-02-26T00:08:49;8.38;;;5.00;;
55350;SDS011;62194;49.480;10.986;2024-02-26T00:08:55;8.17;;;5.00;;
55350;SDS011;62194;49.480;10.986;2024-02-26T00:09:00;8.15;;;4.97;;
55350;SDS011;62194;49.480;10.986;2024-02-26T00:09:08;7.08;;;4.80;;
55350;SDS011;62194;49.480;10.986;2024-02-26T00:09:13;7.43;;;4.72;;
55350;SDS011;62194;49.480;10.986;2024-02-26T00:09:19;7.53;;;4.80;;
55350;SDS011;62194;49.480;10.986;2024-02-26T00:09:24;7.63;;;5.03;;
55350;SDS011;62194;49.480;10.986;2024-02-26T00:09:29;7.37;;;4.87;;
55350;SDS011;62194;49.480;10.986;2024-02-26T00:09:35;7.33;;;4.90;;
55350;SDS011;62194;49.480;10.986;2024-02-26T00:09:42;7.03;;;5.03;;
55350;SDS011;62194;49.480;10.986;2024-02-26T00:09:47;7.32;;;4.93;;
55350;SDS011;62194;49.480;10.986;2024-02-26T00:09:52;7.43;;;4.80;;
55350;SDS011;62194;49.480;10.986;2024-02-26T00:09:57;8.30;;;4.90;;
55350;SDS011;62194;49.480;10.986;2024-02-26T00:10:03;8.53;;;5.10;;
55350;SDS011;62194;49.480;10.986;2024-02-26T00:10:08;8.63;;;5.20;;
55350;SDS011;62194;49.480;10.986;2024-02-26T00:10:14;8.13;;;5.05;;
55350;SDS011;62194;49.480;10.986;2024-02-26T00:10:19;7.93;;;5.07;;
55350;SDS011;62194;49.480;10.986;2024-02-26T00:10:25;8.17;;;5.10;;
55350;SDS011;62194;49.480;10.986;2024-02-26T00:10:30;7.78;;;5.03;;
55350;SDS011;62194;49.480;10.986;2024-02-26T00:10:35;7.93;;;5.00;;
55350;SDS011;62194;49.480;10.986;2024-02-26T00:10:40;8.37;;;5.00;;
55350;SDS011;62194;49.480;10.986;2024-02-26T00:10:46;8.40;;;5.07;;
55350;SDS011;62194;49.480;10.986;2024-02-26T00:10:51;7.75;;;4.90;;
55350;SDS011;62194;49.480;10.986;2024-02-26T00:10:56;7.37;;;4.77;;
55350;SDS011;62194;49.480;10.986;2024-02-26T00:11:01;7.30;;;4.80;;
55350;SDS011;62194;49.480;10.986;2024-02-26T00:11:07;7.10;;;4.70;;
55350;SDS011;62194;49.480;10.986;2024-02-26T00:11:12;6.77;;;4.60;;
55350;SDS011;62194;49.480;10.986;2024-02-26T00:11:17;7.10;;;4.70;;
55350;SDS011;62194;49.480;10.986;2024-02-26T00:11:23;7.23;;;4.77;;
55350;SDS011;62194;49.480;10.986;2024-02-26T00:11:28;7.30;;;4.82;;
55350;SDS011;62194;49.480;10.986;2024-02-26T00:11:34;7.27;;;4.80;;
55350;SDS011;62194;49.480;10.986;2024-02-26T00:11:41;7.35;;;4.80;;
55350;SDS011;62194;49.480;10.986;2024-02-26T00:11:46;7.27;;;4.83;;
55350;SDS011;62194;49.480;10.986;2024-02-26T00:11:52;7.03;;;4.82;;
55350;SDS011;62194;49.480;10.986;2024-02-26T00:11:58;6.73;;;4.70;;
55350;SDS011;62194;49.480;10.986;2024-02-26T00:12:04;6.57;;;4.73;;
55350;SDS011;62194;49.480;10.986;2024-02-26T00:12:09;6.53;;;4.73;;
55350;SDS011;62194;49.480;10.986;2024-02-26T00:12:15;6.90;;;4.70;;
55350;SDS011;62194;49.480;10.986;2024-02-26T00:12:20;7.00;;;4.53;;
55350;SDS011;62194;49.480;10.986;2024-02-26T00:12:25;6.88;;;4.43;;
55350;SDS011;62194;49.480;10.986;2024-02-26T00:12:31;7.10;;;4.50;;
55350;SDS011;62194;49.480;10.986;2024-02-26T00:12:36;6.80;;;4.40;;
55350;SDS011;62194;49.480;10.986;2024-02-26T00:12:42;6.72;;;4.57;;
55350;SDS011;62194;49.480;10.986;2024-02-26T00:12:47;6.50;;;4.67;;
55350;SDS011;62194;49.480;10.986;2024-02-26T00:12:52;6.40;;;4.72;;
55350;SDS011;62194;49.480;10.986;2024-02-26T00:12:58;5.97;;;4.63;;
55350;SDS011;62194;49.480;10.986;2024-02-26T00:13:03;6.20;;;4.73;;
55350;SDS011;62194;49.480;10.986;2024-02-26T00:13:08;6.80;;;4.93;;
55350;SDS011;62194;49.480;10.986;2024-02-26T00:13:14;6.60;;;4.75;;
55350;SDS011;62194;49.480;10.986;2024-02-26T00:13:19;6.67;;;4.80;;
55350;SDS011;62194;49.480;10.986;2024-02-26T00:13:25;6.95;;;5.00;;
55350;SDS011;62194;49.480;10.986;2024-02-26T00:13:30;7.00;;;5.00;;
55350;SDS011;62194;49.480;10.986;2024-02-26T00:13:35;6.80;;;4.97;;
55350;SDS011;62194;49.480;10.986;2024-02-26T00:13:41;6.65;;;4.80;;
55350;SDS011;62194;49.480;10.986;2024-02-26T00:13:47;6.53;;;4.70;;
55350;SDS011;62194;49.480;10.986;2024-02-26T00:13:52;6.80;;;4.50;;
55350;SDS011;62194;49.480;10.986;2024-02-26T00:13:57;7.00;;;4.53;;
55350;SDS011;62194;49.480;10.986;2024-02-26T00:14:05;8.04;;;4.73;;
55350;SDS011;62194;49.480;10.986;2024-02-26T00:14:11;7.67;;;4.60;;
55350;SDS011;62194;49.480;10.986;2024-02-26T00:14:16;7.77;;;4.70;;
55350;SDS011;62194;49.480;10.986;2024-02-26T00:14:21;7.53;;;4.88;;
55350;SDS011;62194;49.480;10.986;2024-02-26T00:14:27;7.33;;;4.80;;
55350;SDS011;62194;49.480;10.986;2024-02-26T00:14:32;7.13;;;4.63;;
55350;SDS011;62194;49.480;10.986;2024-02-26T00:14:37;7.20;;;4.70;;
55350;SDS011;62194;49.480;10.986;2024-02-26T00:14:43;7.53;;;4.83;;
55350;SDS011;62194;49.480;10.986;2024-02-26T00:14:50;7.63;;;4.80;;
55350;SDS011;62194;49.480;10.986;2024-02-26T00:14:55;7.57;;;4.77;;
55350;SDS011;62194;49.480;10.986;2024-02-26T00:15:02;6.95;;;4.68;;
55350;SDS011;62194;49.480;10.986;2024-02-26T00:15:09;6.97;;;4.78;;
55350;SDS011;62194;49.480;10.986;2024-02-26T00:15:15;7.13;;;4.80;;
55350;SDS011;62194;49.480;10.986;2024-02-26T00:15:20;7.23;;;4.87;;
55350;SDS011;62194;49.480;10.986;2024-02-26T00:15:25;7.18;;;4.88;;
55350;SDS011;62194;49.480;10.986;2024-02-26T00:15:32;8.27;;;5.17;;
55350;SDS011;62194;49.480;10.986;2024-02-26T00:15:40;7.76;;;5.02;;
55350;SDS011;62194;49.480;10.986;2024-02-26T00:15:45;7.78;;;4.93;;
55350;SDS011;62194;49.480;10.986;2024-02-26T00:15:51;7.77;;;4.93;;
55350;SDS011;62194;49.480;10.986;2024-02-26T00:15:56;8.27;;;4.90;;
55350;SDS011;62194;49.480;10.986;2024-02-26T00:16:02;7.50;;;4.80;;
55350;SDS011;62194;49.480;10.986;2024-02-26T00:16:08;8.87;;;5.00;;
55350;SDS011;62194;49.480;10.986;2024-02-26T00:16:13;9.40;;;5.10;;
55350;SDS011;62194;49.480;10.986;2024-02-26T00:16:18;9.60;;;5.27;;
55350;SDS011;62194;49.480;10.986;2024-02-26T00:16:24;10.00;;;5.50;;
55350;SDS011;62194;49.480;10.986;2024-02-26T00:16:29;10.43;;;5.60;;
55350;SDS011;62194;49.480;10.986;2024-02-26T00:16:35;10.90;;;5.60;;
55350;SDS011;62194;49.480;10.986;2024-02-26T00:16:40;10.13;;;5.78;;
55350;SDS011;62194;49.480;10.986;2024-02-26T00:16:50;10.03;;;5.63;;
55350;SDS011;62194;49.480;10.986;2024-02-26T00:16:55;9.98;;;5.80;;
55350;SDS011;62194;49.480;10.986;2024-02-26T00:17:00;9.33;;;5.77;;
55350;SDS011;62194;49.480;10.986;2024-02-26T00:17:06;9.02;;;5.68;;
55350;SDS011;62194;49.480;10.986;2024-02-26T00:17:11;9.13;;;5.57;;
55350;SDS011;62194;49.480;10.986;2024-02-26T00:17:17;8.85;;;5.43;;
55350;SDS011;62194;49.480;10.986;2024-02-26T00:17:22;7.67;;;5.10;;
55350;SDS011;62194;49.480;10.986;2024-02-26T00:17:27;7.43;;;4.90;;
55350;SDS011;62194;49.480;10.986;2024-02-26T00:17:33;7.43;;;4.90;;
55350;SDS011;62194;49.480;10.986;2024-02-26T00:17:38;7.35;;;4.90;;
55350;SDS011;62194;49.480;10.986;2024-02-26T00:17:43;7.33;;;5.00;;
55350;SDS011;62194;49.480;10.986;2024-02-26T00:17:49;7.47;;;5.10;;
55350;SDS011;62194;49.480;10.986;2024-02-26T00:17:54;7.63;;;5.20;;
55350;SDS011;62194;49.480;10.986;2024-02-26T00:17:59;7.60;;;5.20;;
55350;SDS011;62194;49.480;10.986;2024-02-26T00:18:04;7.77;;;5.13;;
55350;SDS011;62194;49.480;10.986;2024-02-26T00:18:10;8.02;;;5.15;;
55350;SDS011;62194;49.480;10.986;2024-02-26T00:18:15;8.20;;;5.30;;
55350;SDS011;62194;49.480;10.986;2024-02-26T00:18:20;8.63;;;5.30;;
55350;SDS011;62194;49.480;10.986;2024-02-26T00:18:25;9.00;;;5.47;;
55350;SDS011;62194;49.480;10.986;2024-02-26T00:18:31;9.40;;;5.63;;
55350;SDS011;62194;49.480;10.986;2024-02-26T00:18:36;9.33;;;5.77;;
55350;SDS011;62194;49.480;10.986;2024-02-26T00:18:41;9.13;;;5.73;;
55350;SDS011;62194;49.480;10.986;2024-02-26T00:18:47;9.32;;;5.63;;
55350;SDS011;62194;49.480;10.986;2024-02-26T00:18:52;9.53;;;5.73;;
55350;SDS011;62194;49.480;10.986;2024-02-26T00:18:57;9.93;;;5.80;;
55350;SDS011;62194;49.480;10.986;2024-02-26T00:19:02;9.60;;;5.63;;
55350;SDS011;62194;49.480;10.986;2024-02-26T00:19:08;10.15;;;5.78;;
55350;SDS011;62194;49.480;10.986;2024-02-26T00:19:13;10.40;;;5.83;;
55350;SDS011;62194;49.480;10.986;2024-02-26T00:19:18;10.17;;;5.83;;
55350;SDS011;62194;49.480;10.986;2024-02-26T00:19:24;9.38;;;5.70;;
55350;SDS011;62194;49.480;10.986;2024-02-26T00:19:29;9.13;;;5.90;;
55350;SDS011;62194;49.480;10.986;2024-02-26T00:19:35;9.13;;;5.77;;
55350;SDS011;62194;49.480;10.986;2024-02-26T00:19:40;8.80;;;5.60;;
55350;SDS011;62194;49.480;10.986;2024-02-26T00:19:46;8.65;;;5.70;;
55350;SDS011;62194;49.480;10.986;2024-02-26T00:19:51;8.80;;;5.57;;
55350;SDS011;62194;49.480;10.986;2024-02-26T00:19:56;8.82;;;5.35;;
55350;SDS011;62194;49.480;10.986;2024-02-26T00:20:02;8.57;;;5.37;;
55350;SDS011;62194;49.480;10.986;2024-02-26T00:20:10;8.23;;;5.43;;
55350;SDS011;62194;49.480;10.986;2024-02-26T00:20:15;8.26;;;5.38;;
55350;SDS011;62194;49.480;10.986;2024-02-26T00:20:21;8.43;;;5.53;;
55350;SDS011;62194;49.480;10.986;2024-02-26T00:20:26;8.17;;;5.50;;
55350;SDS011;62194;49.480;10.986;2024-02-26T00:20:31;8.25;;;5.57;;
55350;SDS011;62194;49.480;10.986;2024-02-26T00:20:37;8.63;;;5.67;;
55350;SDS011;62194;49.480;10.986;2024-02-26T00:20:42;8.83;;;5.57;;
55350;SDS011;62194;49.480;10.986;2024-02-26T00:20:48;8.57;;;5.38;;
55350;SDS011;62194;49.480;10.986;2024-02-26T00:20:53;8.37;;;5.37;;
55350;SDS011;62194;49.480;10.986;2024-02-26T00:20:58;9.40;;;5.38;;
55350;SDS011;62194;49.480;10.986;2024-02-26T00:21:04;8.97;;;5.27;;
55350;SDS011;62194;49.480;10.986;2024-02-26T00:21:09;8.65;;;5.35;;
55350;SDS011;62194;49.480;10.986;2024-02-26T00:21:15;9.00;;;5.57;;
55350;SDS011;62194;49.480;10.986;2024-02-26T00:21:20;9.05;;;5.53;;
55350;SDS011;62194;49.480;10.986;2024-02-26T00:21:25;8.37;;;5.57;;
55350;SDS011;62194;49.480;10.986;2024-02-26T00:21:31;8.37;;;5.40;;
55350;SDS011;62194;49.480;10.986;2024-02-26T00:21:39;8.67;;;5.27;;
55350;SDS011;62194;49.480;10.986;2024-02-26T00:21:46;8.43;;;5.16;;
55350;SDS011;62194;49.480;10.986;2024-02-26T00:21:51;7.95;;;5.10;;
55350;SDS011;62194;49.480;10.986;2024-02-26T00:21:58;7.43;;;5.10;;
55350;SDS011;62194;49.480;10.986;2024-02-26T00:22:04;7.30;;;5.17;;
55350;SDS011;62194;49.480;10.986;2024-02-26T00:22:09;6.80;;;5.00;;
55350;SDS011;62194;49.480;10.986;2024-02-26T00:22:14;6.65;;;4.80;;
55350;SDS011;62194;49.480;10.986;2024-02-26T00:22:19;6.93;;;4.83;;
55350;SDS011;62194;49.480;10.986;2024-02-26T00:22:26;7.60;;;5.10;;
55350;SDS011;62194;49.480;10.986;2024-02-26T00:22:32;7.53;;;5.10;;
55350;SDS011;62194;49.480;10.986;2024-02-26T00:22:37;7.72;;;5.20;;
55350;SDS011;62194;49.480;10.986;2024-02-26T00:22:42;8.07;;;5.27;;
55350;SDS011;62194;49.480;10.986;2024-02-26T00:22:48;7.67;;;5.13;;
55350;SDS011;62194;49.480;10.986;2024-02-26T00:22:53;7.05;;;4.93;;
55350;SDS011;62194;49.480;10.986;2024-02-26T00:22:58;6.60;;;4.80;;
55350;SDS011;62194;49.480;10.986;2024-02-26T00:23:03;7.10;;;4.93;;
55350;SDS011;62194;49.480;10.986;2024-02-26T00:23:09;7.53;;;5.00;;
55350;SDS011;62194;49.480;10.986;2024-02-26T00:23:17;8.05;;;5.25;;
55350;SDS011;62194;49.480;10.986;2024-02-26T00:23:22;8.52;;;5.45;;
55350;SDS011;62194;49.480;10.986;2024-02-26T00:23:28;8.53;;;5.50;;
55350;SDS011;62194;49.480;10.986;2024-02-26T00:23:34;8.02;;;5.40;;
55350;SDS011;62194;49.480;10.986;2024-02-26T00:23:39;7.93;;;5.30;;
55350;SDS011;62194;49.480;10.986;2024-02-26T00:23:44;7.83;;;5.20;;
55350;SDS011;62194;49.480;10.986;2024-02-26T00:23:50;8.33;;;5.30;;
55350;SDS011;62194;49.480;10.986;2024-02-26T00:23:56;9.20;;;5.30;;
55350;SDS011;62194;49.480;10.986;2024-02-26T00:24:01;9.53;;;5.30;;
55350;SDS011;62194;49.480;10.986;2024-02-26T00:24:06;9.37;;;5.40;;
55350;SDS011;62194;49.480;10.986;2024-02-26T00:24:11;9.07;;;5.33;;
55350;SDS011;62194;49.480;10.986;2024-02-26T00:24:17;8.65;;;5.32;;
55350;SDS011;62194;49.480;10.986;2024-02-26T00:24:22;8.13;;;5.33;;
55350;SDS011;62194;49.480;10.986;2024-02-26T00:24:27;7.50;;;5.20;;
55350;SDS011;62194;49.480;10.986;2024-02-26T00:24:32;7.57;;;5.28;;
55350;SDS011;62194;49.480;10.986;2024-02-26T00:24:39;7.37;;;5.27;;
55350;SDS011;62194;49.480;10.986;2024-02-26T00:24:45;7.36;;;5.40;;
55350;SDS011;62194;49.480;10.986;2024-02-26T00:24:50;7.10;;;5.30;;
55350;SDS011;62194;49.480;10.986;2024-02-26T00:24:55;7.10;;;5.27;;
55350;SDS011;62194;49.480;10.986;2024-02-26T00:25:01;7.07;;;5.28;;
55350;SDS011;62194;49.480;10.986;2024-02-26T00:25:06;7.37;;;5.40;;
55350;SDS011;62194;49.480;10.986;2024-02-26T00:25:11;7.27;;;5.30;;
55350;SDS011;62194;49.480;10.986;2024-02-26T00:25:17;7.78;;;5.30;;
55350;SDS011;62194;49.480;10.986;2024-02-26T00:25:22;8.20;;;5.43;;
55350;SDS011;62194;49.480;10.986;2024-02-26T00:25:28;8.33;;;5.33;;
55350;SDS011;62194;49.480;10.986;2024-02-26T00:25:33;7.87;;;5.17;;
55350;SDS011;62194;49.480;10.986;2024-02-26T00:25:38;7.57;;;5.07;;
55350;SDS011;62194;49.480;10.986;2024-02-26T00:25:43;7.50;;;5.10;;
55350;SDS011;62194;49.480;10.986;2024-02-26T00:25:49;6.90;;;5.00;;
55350;SDS011;62194;49.480;10.986;2024-02-26T00:25:54;6.30;;;4.73;;
55350;SDS011;62194;49.480;10.986;2024-02-26T00:25:59;6.18;;;4.72;;
55350;SDS011;62194;49.480;10.986;2024-02-26T00:26:05;6.17;;;4.63;;
55350;SDS011;62194;49.480;10.986;2024-02-26T00:26:10;6.63;;;4.60;;
55350;SDS011;62194;49.480;10.986;2024-02-26T00:26:16;6.95;;;4.55;;
55350;SDS011;62194;49.480;10.986;2024-02-26T00:26:21;7.33;;;4.80;;
55350;SDS011;62194;49.480;10.986;2024-02-26T00:26:26;7.40;;;4.85;;
55350;SDS011;62194;49.480;10.986;2024-02-26T00:26:31;7.17;;;4.73;;
55350;SDS011;62194;49.480;10.986;2024-02-26T00:26:37;7.43;;;4.80;;
55350;SDS011;62194;49.480;10.986;2024-02-26T00:26:42;6.72;;;4.90;;
55350;SDS011;62194;49.480;10.986;2024-02-26T00:26:47;6.50;;;4.87;;
55350;SDS011;62194;49.480;10.986;2024-02-26T00:26:58;6.73;;;4.63;;
55350;SDS011;62194;49.480;10.986;2024-02-26T00:27:04;7.10;;;4.80;;
55350;SDS011;62194;49.480;10.986;2024-02-26T00:27:09;7.05;;;4.80;;
55350;SDS011;62194;49.480;10.986;2024-02-26T00:27:14;6.87;;;4.73;;
55350;SDS011;62194;49.480;10.986;2024-02-26T00:27:20;6.93;;;4.80;;
55350;SDS011;62194;49.480;10.986;2024-02-26T00:27:25;7.22;;;4.95;;
55350;SDS011;62194;49.480;10.986;2024-02-26T00:27:30;7.03;;;4.87;;
55350;SDS011;62194;49.480;10.986;2024-02-26T00:27:36;6.60;;;4.83;;
55350;SDS011;62194;49.480;10.986;2024-02-26T00:27:41;6.80;;;4.80;;
55350;SDS011;62194;49.480;10.986;2024-02-26T00:27:48;7.23;;;4.93;;
55350;SDS011;62194;49.480;10.986;2024-02-26T00:27:54;7.47;;;4.90;;
55350;SDS011;62194;49.480;10.986;2024-02-26T00:27:59;7.07;;;4.80;;
55350;SDS011;62194;49.480;10.986;2024-02-26T00:28:04;6.95;;;4.75;;
55350;SDS011;62194;49.480;10.986;2024-02-26T00:28:10;7.17;;;4.90;;
55350;SDS011;62194;49.480;10.986;2024-02-26T00:28:15;7.18;;;4.88;;
55350;SDS011;62194;49.480;10.986;2024-02-26T00:28:21;8.67;;;4.93;;
55350;SDS011;62194;49.480;10.986;2024-02-26T00:28:26;8.32;;;4.95;;
55350;SDS011;62194;49.480;10.986;2024-02-26T00:28:34;9.33;;;5.13;;
55350;SDS011;62194;49.480;10.986;2024-02-26T00:28:39;9.13;;;4.93;;
55350;SDS011;62194;49.480;10.986;2024-02-26T00:28:44;9.13;;;4.87;;
55350;SDS011;62194;49.480;10.986;2024-02-26T00:28:50;7.07;;;4.57;;
55350;SDS011;62194;49.480;10.986;2024-02-26T00:28:55;7.22;;;4.65;;
55350;SDS011;62194;49.480;10.986;2024-02-26T00:29:00;6.63;;;4.53;;
55350;SDS011;62194;49.480;10.986;2024-02-26T00:29:06;6.77;;;4.57;;
55350;SDS011;62194;49.480;10.986;2024-02-26T00:29:11;6.53;;;4.60;;
55350;SDS011;62194;49.480;10.986;2024-02-26T00:29:16;6.37;;;4.70;;
55350;SDS011;62194;49.480;10.986;2024-02-26T00:29:22;6.43;;;4.57;;
55350;SDS011;62194;49.480;10.986;2024-02-26T00:29:27;6.60;;;4.60;;
55350;SDS011;62194;49.480;10.986;2024-02-26T00:29:32;6.30;;;4.53;;
55350;SDS011;62194;49.480;10.986;2024-02-26T00:29:37;6.23;;;4.60;;
55350;SDS011;62194;49.480;10.986;2024-02-26T00:29:43;6.78;;;4.72;;
55350;SDS011;62194;49.480;10.986;2024-02-26T00:29:48;7.10;;;4.77;;
55350;SDS011;62194;49.480;10.986;2024-02-26T00:29:53;6.93;;;4.90;;
55350;SDS011;62194;49.480;10.986;2024-02-26T00:29:59;7.05;;;4.95;;
55350;SDS011;62194;49.480;10.986;2024-02-26T00:30:04;8.10;;;5.10;;
55350;SDS011;62194;49.480;10.986;2024-02-26T00:30:10;8.03;;;5.03;;
55350;SDS011;62194;49.480;10.986;2024-02-26T00:30:17;7.50;;;5.05;;
55350;SDS011;62194;49.480;10.986;2024-02-26T00:30:22;7.30;;;5.00;;
55350;SDS011;62194;49.480;10.986;2024-02-26T00:30:28;7.35;;;5.05;;
55350;SDS011;62194;49.480;10.986;2024-02-26T00:30:33;6.77;;;5.03;;
55350;SDS011;62194;49.480;10.986;2024-02-26T00:30:38;6.63;;;5.10;;
55350;SDS011;62194;49.480;10.986;2024-02-26T00:30:43;7.28;;;5.03;;
55350;SDS011;62194;49.480;10.986;2024-02-26T00:30:49;7.90;;;5.10;;
55350;SDS011;62194;49.480;10.986;2024-02-26T00:30:54;7.83;;;5.17;;
55350;SDS011;62194;49.480;10.986;2024-02-26T00:31:01;7.50;;;4.80;;
55350;SDS011;62194;49.480;10.986;2024-02-26T00:31:06;7.60;;;4.90;;
55350;SDS011;62194;49.480;10.986;2024-02-26T00:31:11;6.77;;;4.83;;
55350;SDS011;62194;49.480;10.986;2024-02-26T00:31:16;7.10;;;4.97;;
55350;SDS011;62194;49.480;10.986;2024-02-26T00:31:22;6.88;;;4.90;;
55350;SDS011;62194;49.480;10.986;2024-02-26T00:31:27;6.70;;;4.83;;
55350;SDS011;62194;49.480;10.986;2024-02-26T00:31:32;6.78;;;4.88;;
55350;SDS011;62194;49.480;10.986;2024-02-26T00:31:38;7.17;;;4.90;;
55350;SDS011;62194;49.480;10.986;2024-02-26T00:31:43;8.27;;;4.90;;
55350;SDS011;62194;49.480;10.986;2024-02-26T00:31:48;7.93;;;4.68;;
55350;SDS011;62194;49.480;10.986;2024-02-26T00:31:54;8.13;;;4.60;;
55350;SDS011;62194;49.480;10.986;2024-02-26T00:31:59;8.93;;;4.77;;
55350;SDS011;62194;49.480;10.986;2024-02-26T00:32:04;8.90;;;4.73;;
55350;SDS011;62194;49.480;10.986;2024-02-26T00:32:10;8.43;;;4.70;;
55350;SDS011;62194;49.480;10.986;2024-02-26T00:32:15;6.80;;;4.50;;
55350;SDS011;62194;49.480;10.986;2024-02-26T00:32:20;6.93;;;4.57;;
55350;SDS011;62194;49.480;10.986;2024-02-26T00:32:26;6.73;;;4.50;;
55350;SDS011;62194;49.480;10.986;2024-02-26T00:32:31;6.17;;;4.30;;
55350;SDS011;62194;49.480;10.986;2024-02-26T00:32:36;6.47;;;4.40;;
55350;SDS011;62194;49.480;10.986;2024-02-26T00:32:41;6.75;;;4.50;;
55350;SDS011;62194;49.480;10.986;2024-02-26T00:32:47;7.37;;;4.63;;
55350;SDS011;62194;49.480;10.986;2024-02-26T00:32:52;7.40;;;4.70;;
55350;SDS011;62194;49.480;10.986;2024-02-26T00:32:57;7.57;;;4.82;;
55350;SDS011;62194;49.480;10.986;2024-02-26T00:33:03;7.80;;;5.10;;